sensor_id;sensor_type;location;lat;lon;timestamp;temperature;humidity
75824;DHT22;64457;51.976;9.834;2023-10-09T00:01:59;16.40;93.10
75824;DHT22;64457;51.976;9.834;2023-10-09T00:04:26;16.60;93.30
75824;DHT22;64457;51.976;9.834;2023-10-09T00:06:54;16.90;92.60
75824;DHT22;64457;51.976;9.834;2023-10-09T00:09:25;16.80;92.40
75824;DHT22;64457;51.976;9.834;2023-10-09T00:12:00;16.90;92.80
75824;DHT22;64457;51.976;9.834;2023-10-09T00:14:30;17.10;92.30
75824;DHT22;64457;51.976;9.834;2023-10-09T00:17:00;17.30;92.20
75824;DHT22;64457;51.976;9.834;2023-10-09T00:19:43;17.50;92.10
75824;DHT22;64457;51.976;9.834;2023-10-09T00:22:13;17.40;92.20
75824;DHT22;64457;51.976;9.834;2023-10-09T00:24:52;17.50;92.40
75824;DHT22;64457;51.976;9.834;2023-10-09T00:27:39;17.60;92.30
75824;DHT22;64457;51.976;9.834;2023-10-09T00:30:13;17.60;91.70
75824;DHT22;64457;51.976;9.834;2023-10-09T00:32:43;17.60;92.20
75824;DHT22;64457;51.976;9.834;2023-10-09T00:35:18;17.50;91.90
75824;DHT22;64457;51.976;9.834;2023-10-09T00:38:13;17.40;92.10
75824;DHT22;64457;51.976;9.834;2023-10-09T00:40:51;17.30;92.40
75824;DHT22;64457;51.976;9.834;2023-10-09T00:43:37;17.40;92.50
75824;DHT22;64457;51.976;9.834;2023-10-09T00:46:09;17.40;92.60
75824;DHT22;64457;51.976;9.834;2023-10-09T00:48:52;17.20;92.60
75824;DHT22;64457;51.976;9.834;2023-10-09T00:51:23;17.20;92.90
75824;DHT22;64457;51.976;9.834;2023-10-09T00:53:54;17.40;92.70
75824;DHT22;64457;51.976;9.834;2023-10-09T00:56:25;17.30;92.80
75824;DHT22;64457;51.976;9.834;2023-10-09T00:59:06;17.30;92.90
75824;DHT22;64457;51.976;9.834;2023-10-09T01:01:40;17.40;92.70
75824;DHT22;64457;51.976;9.834;2023-10-09T01:04:16;17.50;92.80
75824;DHT22;64457;51.976;9.834;2023-10-09T01:06:45;17.50;92.60
75824;DHT22;64457;51.976;9.834;2023-10-09T01:09:19;17.60;92.50
75824;DHT22;64457;51.976;9.834;2023-10-09T01:11:48;17.50;92.60
75824;DHT22;64457;51.976;9.834;2023-10-09T01:14:31;17.60;92.00
75824;DHT22;64457;51.976;9.834;2023-10-09T01:17:02;17.50;92.00
75824;DHT22;64457;51.976;9.834;2023-10-09T01:19:34;17.50;92.40
75824;DHT22;64457;51.976;9.834;2023-10-09T01:22:02;17.60;92.00
75824;DHT22;64457;51.976;9.834;2023-10-09T01:24:40;17.70;92.40
75824;DHT22;64457;51.976;9.834;2023-10-09T01:27:07;17.70;92.20
75824;DHT22;64457;51.976;9.834;2023-10-09T01:29:41;17.00;93.00
75824;DHT22;64457;51.976;9.834;2023-10-09T01:32:09;15.90;94.70
75824;DHT22;64457;51.976;9.834;2023-10-09T01:34:43;15.70;95.70
75824;DHT22;64457;51.976;9.834;2023-10-09T01:37:15;15.70;96.00
75824;DHT22;64457;51.976;9.834;2023-10-09T01:39:46;16.00;95.90
75824;DHT22;64457;51.976;9.834;2023-10-09T01:42:16;16.40;95.30
75824;DHT22;64457;51.976;9.834;2023-10-09T01:44:53;16.80;94.60
75824;DHT22;64457;51.976;9.834;2023-10-09T01:47:21;17.20;94.10
75824;DHT22;64457;51.976;9.834;2023-10-09T01:49:49;17.40;93.70
75824;DHT22;64457;51.976;9.834;2023-10-09T01:52:18;17.50;93.40
75824;DHT22;64457;51.976;9.834;2023-10-09T01:54:51;17.60;92.90
75824;DHT22;64457;51.976;9.834;2023-10-09T01:57:20;17.60;93.20
75824;DHT22;64457;51.976;9.834;2023-10-09T01:59:50;17.70;93.20
75824;DHT22;64457;51.976;9.834;2023-10-09T02:02:19;17.80;93.90
75824;DHT22;64457;51.976;9.834;2023-10-09T02:04:58;17.80;93.30
75824;DHT22;64457;51.976;9.834;2023-10-09T02:07:35;17.40;93.70
75824;DHT22;64457;51.976;9.834;2023-10-09T02:10:13;17.40;94.30
75824;DHT22;64457;51.976;9.834;2023-10-09T02:12:51;17.50;94.50
75824;DHT22;64457;51.976;9.834;2023-10-09T02:15:24;17.60;94.10
75824;DHT22;64457;51.976;9.834;2023-10-09T02:18:06;17.60;94.10
75824;DHT22;64457;51.976;9.834;2023-10-09T02:20:44;17.70;93.80
75824;DHT22;64457;51.976;9.834;2023-10-09T02:23:13;17.80;94.10
75824;DHT22;64457;51.976;9.834;2023-10-09T02:25:44;17.80;94.00
75824;DHT22;64457;51.976;9.834;2023-10-09T02:28:18;17.90;94.20
75824;DHT22;64457;51.976;9.834;2023-10-09T02:30:45;17.90;94.10
75824;DHT22;64457;51.976;9.834;2023-10-09T02:33:16;17.90;94.40
75824;DHT22;64457;51.976;9.834;2023-10-09T02:35:53;17.80;94.40
75824;DHT22;64457;51.976;9.834;2023-10-09T02:38:20;17.80;94.60
75824;DHT22;64457;51.976;9.834;2023-10-09T02:40:51;17.70;95.30
75824;DHT22;64457;51.976;9.834;2023-10-09T02:43:44;17.70;95.20
75824;DHT22;64457;51.976;9.834;2023-10-09T02:46:12;17.60;95.40
75824;DHT22;64457;51.976;9.834;2023-10-09T02:48:44;17.60;95.60
75824;DHT22;64457;51.976;9.834;2023-10-09T02:51:17;17.50;96.10
75824;DHT22;64457;51.976;9.834;2023-10-09T02:54:00;17.30;96.10
75824;DHT22;64457;51.976;9.834;2023-10-09T02:56:45;17.30;96.10
75824;DHT22;64457;51.976;9.834;2023-10-09T02:59:21;17.50;95.90
75824;DHT22;64457;51.976;9.834;2023-10-09T03:01:48;17.60;96.10
75824;DHT22;64457;51.976;9.834;2023-10-09T03:04:18;17.40;95.60
75824;DHT22;64457;51.976;9.834;2023-10-09T03:06:49;17.40;95.60
75824;DHT22;64457;51.976;9.834;2023-10-09T03:09:19;17.50;96.20
75824;DHT22;64457;51.976;9.834;2023-10-09T03:11:56;17.60;96.10
75824;DHT22;64457;51.976;9.834;2023-10-09T03:14:28;17.60;95.90
75824;DHT22;64457;51.976;9.834;2023-10-09T03:16:57;17.60;96.60
75824;DHT22;64457;51.976;9.834;2023-10-09T03:19:26;17.50;96.60
75824;DHT22;64457;51.976;9.834;2023-10-09T03:21:54;17.60;96.40
75824;DHT22;64457;51.976;9.834;2023-10-09T03:24:23;17.60;96.60
75824;DHT22;64457;51.976;9.834;2023-10-09T03:26:50;17.60;96.70
75824;DHT22;64457;51.976;9.834;2023-10-09T03:29:24;17.30;97.50
75824;DHT22;64457;51.976;9.834;2023-10-09T03:31:53;17.20;97.60
75824;DHT22;64457;51.976;9.834;2023-10-09T03:34:23;17.40;97.80
75824;DHT22;64457;51.976;9.834;2023-10-09T03:36:51;17.50;97.80
75824;DHT22;64457;51.976;9.834;2023-10-09T03:39:30;17.50;97.80
75824;DHT22;64457;51.976;9.834;2023-10-09T03:42:04;17.60;97.90
75824;DHT22;64457;51.976;9.834;2023-10-09T03:44:37;17.70;98.00
75824;DHT22;64457;51.976;9.834;2023-10-09T03:47:09;17.10;99.10
75824;DHT22;64457;51.976;9.834;2023-10-09T03:49:37;16.90;99.80
75824;DHT22;64457;51.976;9.834;2023-10-09T03:52:06;16.50;99.90
75824;DHT22;64457;51.976;9.834;2023-10-09T03:54:34;16.50;99.90
75824;DHT22;64457;51.976;9.834;2023-10-09T03:57:04;16.70;99.90
75824;DHT22;64457;51.976;9.834;2023-10-09T03:59:32;17.00;99.90
75824;DHT22;64457;51.976;9.834;2023-10-09T04:02:01;17.20;99.90
75824;DHT22;64457;51.976;9.834;2023-10-09T04:04:30;17.30;99.90
75824;DHT22;64457;51.976;9.834;2023-10-09T04:06:59;17.50;99.90
75824;DHT22;64457;51.976;9.834;2023-10-09T04:09:26;17.60;99.50
75824;DHT22;64457;51.976;9.834;2023-10-09T04:12:01;17.70;98.80
75824;DHT22;64457;51.976;9.834;2023-10-09T04:14:50;17.80;98.70
75824;DHT22;64457;51.976;9.834;2023-10-09T04:17:25;17.80;99.20
75824;DHT22;64457;51.976;9.834;2023-10-09T04:20:03;17.40;99.60
75824;DHT22;64457;51.976;9.834;2023-10-09T04:22:49;17.10;99.90
75824;DHT22;64457;51.976;9.834;2023-10-09T04:25:17;16.60;99.90
75824;DHT22;64457;51.976;9.834;2023-10-09T04:27:54;16.70;99.90
75824;DHT22;64457;51.976;9.834;2023-10-09T04:30:34;16.70;99.90
75824;DHT22;64457;51.976;9.834;2023-10-09T04:33:07;16.80;99.90
75824;DHT22;64457;51.976;9.834;2023-10-09T04:35:54;17.10;99.90
75824;DHT22;64457;51.976;9.834;2023-10-09T04:38:35;17.20;99.90
75824;DHT22;64457;51.976;9.834;2023-10-09T04:41:05;17.10;99.90
75824;DHT22;64457;51.976;9.834;2023-10-09T04:43:36;17.00;99.90
75824;DHT22;64457;51.976;9.834;2023-10-09T04:46:09;17.00;99.90
75824;DHT22;64457;51.976;9.834;2023-10-09T04:48:40;16.90;99.90
75824;DHT22;64457;51.976;9.834;2023-10-09T04:51:11;16.90;99.90
75824;DHT22;64457;51.976;9.834;2023-10-09T04:53:48;17.10;99.90
75824;DHT22;64457;51.976;9.834;2023-10-09T04:56:26;17.40;99.90
75824;DHT22;64457;51.976;9.834;2023-10-09T04:58:57;17.50;99.90
75824;DHT22;64457;51.976;9.834;2023-10-09T05:01:34;17.50;99.90
75824;DHT22;64457;51.976;9.834;2023-10-09T05:04:11;17.80;99.90
75824;DHT22;64457;51.976;9.834;2023-10-09T05:06:55;17.80;99.90
75824;DHT22;64457;51.976;9.834;2023-10-09T05:09:23;18.00;99.90
75824;DHT22;64457;51.976;9.834;2023-10-09T05:11:50;18.30;99.90
75824;DHT22;64457;51.976;9.834;2023-10-09T05:14:35;18.30;99.90
75824;DHT22;64457;51.976;9.834;2023-10-09T05:17:06;18.10;99.90
75824;DHT22;64457;51.976;9.834;2023-10-09T05:19:43;18.10;99.90
75824;DHT22;64457;51.976;9.834;2023-10-09T05:22:42;18.10;99.90
75824;DHT22;64457;51.976;9.834;2023-10-09T05:25:23;18.20;99.90
75824;DHT22;64457;51.976;9.834;2023-10-09T05:28:05;18.30;99.90
75824;DHT22;64457;51.976;9.834;2023-10-09T05:30:46;18.20;99.90
75824;DHT22;64457;51.976;9.834;2023-10-09T05:33:21;17.20;99.90
75824;DHT22;64457;51.976;9.834;2023-10-09T05:35:55;17.00;99.90
75824;DHT22;64457;51.976;9.834;2023-10-09T05:38:42;17.10;99.90
75824;DHT22;64457;51.976;9.834;2023-10-09T05:41:24;17.10;99.90
75824;DHT22;64457;51.976;9.834;2023-10-09T05:44:13;17.30;99.90
75824;DHT22;64457;51.976;9.834;2023-10-09T05:46:58;17.60;99.90
75824;DHT22;64457;51.976;9.834;2023-10-09T05:49:57;17.90;99.90
75824;DHT22;64457;51.976;9.834;2023-10-09T05:52:43;18.20;99.90
75824;DHT22;64457;51.976;9.834;2023-10-09T05:55:30;18.20;99.90
75824;DHT22;64457;51.976;9.834;2023-10-09T05:58:17;18.20;99.90
75824;DHT22;64457;51.976;9.834;2023-10-09T06:01:02;18.30;99.90
75824;DHT22;64457;51.976;9.834;2023-10-09T06:03:49;18.20;99.90
75824;DHT22;64457;51.976;9.834;2023-10-09T06:06:21;18.10;99.90
75824;DHT22;64457;51.976;9.834;2023-10-09T06:09:14;18.30;99.90
75824;DHT22;64457;51.976;9.834;2023-10-09T06:12:00;18.40;99.90
75824;DHT22;64457;51.976;9.834;2023-10-09T06:14:46;18.50;99.90
75824;DHT22;64457;51.976;9.834;2023-10-09T06:17:25;18.60;99.90
75824;DHT22;64457;51.976;9.834;2023-10-09T06:20:10;18.70;99.90
75824;DHT22;64457;51.976;9.834;2023-10-09T06:22:53;18.90;99.90
75824;DHT22;64457;51.976;9.834;2023-10-09T06:25:29;19.00;99.80
75824;DHT22;64457;51.976;9.834;2023-10-09T06:28:01;19.00;99.90
75824;DHT22;64457;51.976;9.834;2023-10-09T06:30:28;19.00;99.90
75824;DHT22;64457;51.976;9.834;2023-10-09T06:33:00;19.00;99.90
75824;DHT22;64457;51.976;9.834;2023-10-09T06:35:47;19.00;99.90
75824;DHT22;64457;51.976;9.834;2023-10-09T06:38:21;18.80;99.90
75824;DHT22;64457;51.976;9.834;2023-10-09T06:40:51;18.30;99.90
75824;DHT22;64457;51.976;9.834;2023-10-09T06:43:37;18.30;99.90
75824;DHT22;64457;51.976;9.834;2023-10-09T06:46:16;18.40;99.90
75824;DHT22;64457;51.976;9.834;2023-10-09T06:49:01;18.20;99.90
75824;DHT22;64457;51.976;9.834;2023-10-09T06:51:52;17.90;99.90
75824;DHT22;64457;51.976;9.834;2023-10-09T06:54:22;17.80;99.90
75824;DHT22;64457;51.976;9.834;2023-10-09T06:56:54;17.80;99.90
75824;DHT22;64457;51.976;9.834;2023-10-09T06:59:39;17.80;99.90
75824;DHT22;64457;51.976;9.834;2023-10-09T07:02:31;17.80;99.90
75824;DHT22;64457;51.976;9.834;2023-10-09T07:05:11;18.00;99.90
75824;DHT22;64457;51.976;9.834;2023-10-09T07:07:44;18.30;99.90
75824;DHT22;64457;51.976;9.834;2023-10-09T07:10:22;18.60;99.90
75824;DHT22;64457;51.976;9.834;2023-10-09T07:13:07;18.70;99.90
75824;DHT22;64457;51.976;9.834;2023-10-09T07:15:34;18.60;99.90
75824;DHT22;64457;51.976;9.834;2023-10-09T07:18:19;18.70;99.90
75824;DHT22;64457;51.976;9.834;2023-10-09T07:20:49;18.80;99.90
75824;DHT22;64457;51.976;9.834;2023-10-09T07:23:27;18.90;99.90
75824;DHT22;64457;51.976;9.834;2023-10-09T07:26:05;19.00;99.90
75824;DHT22;64457;51.976;9.834;2023-10-09T07:28:47;19.10;99.90
75824;DHT22;64457;51.976;9.834;2023-10-09T07:31:19;19.20;99.90
75824;DHT22;64457;51.976;9.834;2023-10-09T07:33:55;19.20;99.90
75824;DHT22;64457;51.976;9.834;2023-10-09T07:36:24;18.50;99.90
75824;DHT22;64457;51.976;9.834;2023-10-09T07:39:04;18.20;99.90
75824;DHT22;64457;51.976;9.834;2023-10-09T07:42:06;18.30;99.90
75824;DHT22;64457;51.976;9.834;2023-10-09T07:44:45;18.40;99.90
75824;DHT22;64457;51.976;9.834;2023-10-09T07:47:19;18.30;99.90
75824;DHT22;64457;51.976;9.834;2023-10-09T07:49:58;18.30;99.90
75824;DHT22;64457;51.976;9.834;2023-10-09T07:52:27;18.60;99.90
75824;DHT22;64457;51.976;9.834;2023-10-09T07:54:55;18.80;99.90
75824;DHT22;64457;51.976;9.834;2023-10-09T07:57:33;18.90;99.90
75824;DHT22;64457;51.976;9.834;2023-10-09T08:00:09;19.00;99.90
75824;DHT22;64457;51.976;9.834;2023-10-09T08:03:01;18.90;99.90
75824;DHT22;64457;51.976;9.834;2023-10-09T08:05:49;18.50;99.90
75824;DHT22;64457;51.976;9.834;2023-10-09T08:08:32;18.50;99.90
75824;DHT22;64457;51.976;9.834;2023-10-09T08:11:26;18.30;99.90
75824;DHT22;64457;51.976;9.834;2023-10-09T08:14:27;18.40;99.90
75824;DHT22;64457;51.976;9.834;2023-10-09T08:17:14;18.30;99.90
75824;DHT22;64457;51.976;9.834;2023-10-09T08:19:50;18.40;99.90
75824;DHT22;64457;51.976;9.834;2023-10-09T08:22:32;18.60;99.90
75824;DHT22;64457;51.976;9.834;2023-10-09T08:25:16;18.20;99.90
75824;DHT22;64457;51.976;9.834;2023-10-09T08:27:59;18.10;99.90
75824;DHT22;64457;51.976;9.834;2023-10-09T08:30:46;18.50;99.90
75824;DHT22;64457;51.976;9.834;2023-10-09T08:33:17;18.60;99.90
75824;DHT22;64457;51.976;9.834;2023-10-09T08:36:02;18.70;99.90
75824;DHT22;64457;51.976;9.834;2023-10-09T08:38:31;18.80;99.90
75824;DHT22;64457;51.976;9.834;2023-10-09T08:41:08;18.80;99.90
75824;DHT22;64457;51.976;9.834;2023-10-09T08:43:48;18.90;99.90
75824;DHT22;64457;51.976;9.834;2023-10-09T08:46:22;18.80;99.90
75824;DHT22;64457;51.976;9.834;2023-10-09T08:48:54;18.80;99.90
75824;DHT22;64457;51.976;9.834;2023-10-09T08:51:24;18.80;99.90
75824;DHT22;64457;51.976;9.834;2023-10-09T08:53:52;18.70;99.90
75824;DHT22;64457;51.976;9.834;2023-10-09T08:56:21;18.70;99.90
75824;DHT22;64457;51.976;9.834;2023-10-09T08:58:54;18.90;99.90
75824;DHT22;64457;51.976;9.834;2023-10-09T09:01:25;18.70;99.90
75824;DHT22;64457;51.976;9.834;2023-10-09T09:03:57;18.60;99.90
75824;DHT22;64457;51.976;9.834;2023-10-09T09:06:36;18.50;99.90
75824;DHT22;64457;51.976;9.834;2023-10-09T09:09:10;18.40;99.90
75824;DHT22;64457;51.976;9.834;2023-10-09T09:11:41;18.60;99.90
75824;DHT22;64457;51.976;9.834;2023-10-09T09:14:15;18.40;99.90
75824;DHT22;64457;51.976;9.834;2023-10-09T09:16:49;18.30;99.90
75824;DHT22;64457;51.976;9.834;2023-10-09T09:19:17;18.70;99.90
75824;DHT22;64457;51.976;9.834;2023-10-09T09:21:50;19.00;99.90
75824;DHT22;64457;51.976;9.834;2023-10-09T09:24:20;19.30;99.90
75824;DHT22;64457;51.976;9.834;2023-10-09T09:27:00;19.40;99.90
75824;DHT22;64457;51.976;9.834;2023-10-09T09:29:44;19.30;99.90
75824;DHT22;64457;51.976;9.834;2023-10-09T09:32:27;18.90;99.90
75824;DHT22;64457;51.976;9.834;2023-10-09T09:35:02;18.80;99.90
75824;DHT22;64457;51.976;9.834;2023-10-09T09:37:32;18.90;99.90
75824;DHT22;64457;51.976;9.834;2023-10-09T09:40:16;18.80;99.90
75824;DHT22;64457;51.976;9.834;2023-10-09T09:42:57;18.70;99.90
75824;DHT22;64457;51.976;9.834;2023-10-09T09:45:32;18.60;99.90
75824;DHT22;64457;51.976;9.834;2023-10-09T09:48:05;18.70;99.90
75824;DHT22;64457;51.976;9.834;2023-10-09T09:50:40;18.70;99.90
75824;DHT22;64457;51.976;9.834;2023-10-09T09:53:12;18.60;99.90
75824;DHT22;64457;51.976;9.834;2023-10-09T09:55:46;18.80;99.90
75824;DHT22;64457;51.976;9.834;2023-10-09T09:58:22;18.80;99.90
75824;DHT22;64457;51.976;9.834;2023-10-09T10:00:56;19.00;99.90
75824;DHT22;64457;51.976;9.834;2023-10-09T10:03:30;19.00;99.90
75824;DHT22;64457;51.976;9.834;2023-10-09T10:06:00;19.30;99.90
75824;DHT22;64457;51.976;9.834;2023-10-09T10:08:31;19.40;99.90
75824;DHT22;64457;51.976;9.834;2023-10-09T10:11:00;19.40;99.90
75824;DHT22;64457;51.976;9.834;2023-10-09T10:13:56;19.60;99.90
75824;DHT22;64457;51.976;9.834;2023-10-09T10:16:32;19.60;99.90
75824;DHT22;64457;51.976;9.834;2023-10-09T10:19:05;19.70;99.90
75824;DHT22;64457;51.976;9.834;2023-10-09T10:21:48;19.70;99.90
75824;DHT22;64457;51.976;9.834;2023-10-09T10:24:41;20.00;99.90
75824;DHT22;64457;51.976;9.834;2023-10-09T10:27:20;20.30;99.90
75824;DHT22;64457;51.976;9.834;2023-10-09T10:30:29;20.50;99.90
75824;DHT22;64457;51.976;9.834;2023-10-09T10:33:00;20.50;99.90
75824;DHT22;64457;51.976;9.834;2023-10-09T10:35:39;20.50;99.90
75824;DHT22;64457;51.976;9.834;2023-10-09T10:38:26;20.40;99.90
75824;DHT22;64457;51.976;9.834;2023-10-09T10:41:17;20.20;99.90
75824;DHT22;64457;51.976;9.834;2023-10-09T10:43:48;20.40;99.90
75824;DHT22;64457;51.976;9.834;2023-10-09T10:46:25;20.50;99.90
75824;DHT22;64457;51.976;9.834;2023-10-09T10:49:04;20.60;99.90
75824;DHT22;64457;51.976;9.834;2023-10-09T10:51:48;20.70;99.90
75824;DHT22;64457;51.976;9.834;2023-10-09T10:54:27;21.00;99.90
75824;DHT22;64457;51.976;9.834;2023-10-09T10:57:35;21.30;99.90
75824;DHT22;64457;51.976;9.834;2023-10-09T11:00:20;21.50;99.90
75824;DHT22;64457;51.976;9.834;2023-10-09T11:03:05;21.70;99.90
75824;DHT22;64457;51.976;9.834;2023-10-09T11:05:55;21.80;99.90
75824;DHT22;64457;51.976;9.834;2023-10-09T11:08:43;21.70;99.90
75824;DHT22;64457;51.976;9.834;2023-10-09T11:11:20;21.70;99.90
75824;DHT22;64457;51.976;9.834;2023-10-09T11:13:48;21.60;99.90
75824;DHT22;64457;51.976;9.834;2023-10-09T11:16:27;21.50;99.90
75824;DHT22;64457;51.976;9.834;2023-10-09T11:19:10;21.50;99.90
75824;DHT22;64457;51.976;9.834;2023-10-09T11:21:55;21.50;99.90
75824;DHT22;64457;51.976;9.834;2023-10-09T11:24:48;21.20;99.90
75824;DHT22;64457;51.976;9.834;2023-10-09T11:27:36;20.90;99.90
75824;DHT22;64457;51.976;9.834;2023-10-09T11:30:06;20.50;99.90
75824;DHT22;64457;51.976;9.834;2023-10-09T11:32:37;20.60;99.90
75824;DHT22;64457;51.976;9.834;2023-10-09T11:35:13;20.80;99.90
75824;DHT22;64457;51.976;9.834;2023-10-09T11:37:55;21.00;99.90
75824;DHT22;64457;51.976;9.834;2023-10-09T11:40:30;21.10;99.90
75824;DHT22;64457;51.976;9.834;2023-10-09T11:43:09;21.00;99.90
75824;DHT22;64457;51.976;9.834;2023-10-09T11:45:39;20.90;99.90
75824;DHT22;64457;51.976;9.834;2023-10-09T11:48:21;20.70;99.90
75824;DHT22;64457;51.976;9.834;2023-10-09T11:51:00;20.50;99.90
75824;DHT22;64457;51.976;9.834;2023-10-09T11:53:44;20.40;99.90
75824;DHT22;64457;51.976;9.834;2023-10-09T11:56:18;20.30;99.90
75824;DHT22;64457;51.976;9.834;2023-10-09T11:58:47;20.30;99.90
75824;DHT22;64457;51.976;9.834;2023-10-09T12:01:15;20.30;99.90
75824;DHT22;64457;51.976;9.834;2023-10-09T12:03:47;20.30;99.90
75824;DHT22;64457;51.976;9.834;2023-10-09T12:06:18;20.20;99.90
75824;DHT22;64457;51.976;9.834;2023-10-09T12:08:48;20.00;99.90
75824;DHT22;64457;51.976;9.834;2023-10-09T12:11:23;19.90;99.90
75824;DHT22;64457;51.976;9.834;2023-10-09T12:13:55;19.90;99.90
75824;DHT22;64457;51.976;9.834;2023-10-09T12:16:26;19.90;99.90
75824;DHT22;64457;51.976;9.834;2023-10-09T12:18:57;19.90;99.90
75824;DHT22;64457;51.976;9.834;2023-10-09T12:21:28;20.00;99.90
75824;DHT22;64457;51.976;9.834;2023-10-09T12:23:56;20.00;99.90
75824;DHT22;64457;51.976;9.834;2023-10-09T12:26:26;20.00;99.90
75824;DHT22;64457;51.976;9.834;2023-10-09T12:28:53;20.10;99.90
75824;DHT22;64457;51.976;9.834;2023-10-09T12:31:23;20.00;99.90
75824;DHT22;64457;51.976;9.834;2023-10-09T12:33:50;19.90;99.90
75824;DHT22;64457;51.976;9.834;2023-10-09T12:36:18;19.80;99.90
75824;DHT22;64457;51.976;9.834;2023-10-09T12:38:47;19.80;99.90
75824;DHT22;64457;51.976;9.834;2023-10-09T12:41:18;19.60;99.90
75824;DHT22;64457;51.976;9.834;2023-10-09T12:43:52;19.70;99.90
75824;DHT22;64457;51.976;9.834;2023-10-09T12:46:20;19.90;99.90
75824;DHT22;64457;51.976;9.834;2023-10-09T12:48:51;19.70;99.90
75824;DHT22;64457;51.976;9.834;2023-10-09T12:51:21;19.60;99.90
75824;DHT22;64457;51.976;9.834;2023-10-09T12:53:55;19.50;99.90
75824;DHT22;64457;51.976;9.834;2023-10-09T12:56:26;19.50;99.90
75824;DHT22;64457;51.976;9.834;2023-10-09T12:59:00;19.60;99.90
75824;DHT22;64457;51.976;9.834;2023-10-09T13:01:27;19.60;99.90
75824;DHT22;64457;51.976;9.834;2023-10-09T13:03:57;19.80;99.90
75824;DHT22;64457;51.976;9.834;2023-10-09T13:06:25;19.80;99.90
75824;DHT22;64457;51.976;9.834;2023-10-09T13:08:53;19.90;99.90
75824;DHT22;64457;51.976;9.834;2023-10-09T13:11:25;20.00;99.90
75824;DHT22;64457;51.976;9.834;2023-10-09T13:13:53;19.70;99.90
75824;DHT22;64457;51.976;9.834;2023-10-09T13:16:26;19.40;99.90
75824;DHT22;64457;51.976;9.834;2023-10-09T13:18:56;19.40;99.90
75824;DHT22;64457;51.976;9.834;2023-10-09T13:21:26;19.50;99.90
75824;DHT22;64457;51.976;9.834;2023-10-09T13:23:58;19.70;99.90
75824;DHT22;64457;51.976;9.834;2023-10-09T13:26:27;19.60;99.90
75824;DHT22;64457;51.976;9.834;2023-10-09T13:28:56;19.70;99.90
75824;DHT22;64457;51.976;9.834;2023-10-09T13:31:26;19.90;99.90
75824;DHT22;64457;51.976;9.834;2023-10-09T13:33:58;20.10;99.90
75824;DHT22;64457;51.976;9.834;2023-10-09T13:36:27;20.30;99.90
75824;DHT22;64457;51.976;9.834;2023-10-09T13:38:57;20.30;99.90
75824;DHT22;64457;51.976;9.834;2023-10-09T13:41:45;20.40;99.90
75824;DHT22;64457;51.976;9.834;2023-10-09T13:44:15;20.40;99.90
75824;DHT22;64457;51.976;9.834;2023-10-09T13:46:44;20.30;99.90
75824;DHT22;64457;51.976;9.834;2023-10-09T13:49:11;20.20;99.90
75824;DHT22;64457;51.976;9.834;2023-10-09T13:51:39;20.40;99.90
75824;DHT22;64457;51.976;9.834;2023-10-09T13:54:10;20.40;99.90
75824;DHT22;64457;51.976;9.834;2023-10-09T13:56:44;20.50;99.90
75824;DHT22;64457;51.976;9.834;2023-10-09T13:59:11;20.60;99.90
75824;DHT22;64457;51.976;9.834;2023-10-09T14:01:38;20.60;99.90
75824;DHT22;64457;51.976;9.834;2023-10-09T14:04:15;20.70;99.90
75824;DHT22;64457;51.976;9.834;2023-10-09T14:06:45;20.70;99.90
75824;DHT22;64457;51.976;9.834;2023-10-09T14:09:13;20.70;99.90
75824;DHT22;64457;51.976;9.834;2023-10-09T14:11:55;20.50;99.90
75824;DHT22;64457;51.976;9.834;2023-10-09T14:14:33;20.40;99.90
75824;DHT22;64457;51.976;9.834;2023-10-09T14:17:05;20.60;99.90
75824;DHT22;64457;51.976;9.834;2023-10-09T14:19:39;20.60;99.90
75824;DHT22;64457;51.976;9.834;2023-10-09T14:22:12;20.60;99.90
75824;DHT22;64457;51.976;9.834;2023-10-09T14:24:41;20.50;99.90
75824;DHT22;64457;51.976;9.834;2023-10-09T14:27:10;20.40;99.90
75824;DHT22;64457;51.976;9.834;2023-10-09T14:29:44;20.60;99.90
75824;DHT22;64457;51.976;9.834;2023-10-09T14:32:12;20.70;99.90
75824;DHT22;64457;51.976;9.834;2023-10-09T14:34:42;20.90;99.90
75824;DHT22;64457;51.976;9.834;2023-10-09T14:37:15;21.10;99.90
75824;DHT22;64457;51.976;9.834;2023-10-09T14:39:44;21.20;99.90
75824;DHT22;64457;51.976;9.834;2023-10-09T14:42:14;21.20;99.90
75824;DHT22;64457;51.976;9.834;2023-10-09T14:44:42;21.30;99.90
75824;DHT22;64457;51.976;9.834;2023-10-09T14:47:10;21.30;99.90
75824;DHT22;64457;51.976;9.834;2023-10-09T14:49:41;21.30;99.90
75824;DHT22;64457;51.976;9.834;2023-10-09T14:52:13;21.20;99.90
75824;DHT22;64457;51.976;9.834;2023-10-09T14:54:43;21.20;99.90
75824;DHT22;64457;51.976;9.834;2023-10-09T14:57:11;21.10;99.90
75824;DHT22;64457;51.976;9.834;2023-10-09T14:59:39;20.80;99.90
75824;DHT22;64457;51.976;9.834;2023-10-09T15:02:08;20.50;99.90
75824;DHT22;64457;51.976;9.834;2023-10-09T15:04:38;20.40;99.90
75824;DHT22;64457;51.976;9.834;2023-10-09T15:07:07;20.40;99.90
75824;DHT22;64457;51.976;9.834;2023-10-09T15:09:35;20.50;99.90
75824;DHT22;64457;51.976;9.834;2023-10-09T15:12:06;20.30;99.90
75824;DHT22;64457;51.976;9.834;2023-10-09T15:14:34;20.40;99.90
75824;DHT22;64457;51.976;9.834;2023-10-09T15:17:03;20.20;99.90
75824;DHT22;64457;51.976;9.834;2023-10-09T15:19:32;20.20;99.90
75824;DHT22;64457;51.976;9.834;2023-10-09T15:22:03;20.40;99.90
75824;DHT22;64457;51.976;9.834;2023-10-09T15:24:36;20.50;99.90
75824;DHT22;64457;51.976;9.834;2023-10-09T15:27:07;20.60;99.90
75824;DHT22;64457;51.976;9.834;2023-10-09T15:29:35;20.50;99.90
75824;DHT22;64457;51.976;9.834;2023-10-09T15:32:09;20.30;99.90
75824;DHT22;64457;51.976;9.834;2023-10-09T15:34:41;20.40;99.90
75824;DHT22;64457;51.976;9.834;2023-10-09T15:37:10;20.60;99.90
75824;DHT22;64457;51.976;9.834;2023-10-09T15:39:40;20.70;99.90
75824;DHT22;64457;51.976;9.834;2023-10-09T15:42:08;20.60;99.90
75824;DHT22;64457;51.976;9.834;2023-10-09T15:44:39;20.70;99.90
75824;DHT22;64457;51.976;9.834;2023-10-09T15:47:08;20.80;99.90
75824;DHT22;64457;51.976;9.834;2023-10-09T15:49:38;20.60;99.90
75824;DHT22;64457;51.976;9.834;2023-10-09T15:52:11;20.50;99.90
75824;DHT22;64457;51.976;9.834;2023-10-09T15:54:44;20.40;99.90
75824;DHT22;64457;51.976;9.834;2023-10-09T15:57:14;20.50;99.90
75824;DHT22;64457;51.976;9.834;2023-10-09T15:59:42;20.20;99.90
75824;DHT22;64457;51.976;9.834;2023-10-09T16:02:10;20.10;99.90
75824;DHT22;64457;51.976;9.834;2023-10-09T16:04:38;20.30;99.90
75824;DHT22;64457;51.976;9.834;2023-10-09T16:07:07;20.30;99.90
75824;DHT22;64457;51.976;9.834;2023-10-09T16:09:37;20.30;99.90
75824;DHT22;64457;51.976;9.834;2023-10-09T16:12:09;20.40;99.90
75824;DHT22;64457;51.976;9.834;2023-10-09T16:14:38;20.50;99.90
75824;DHT22;64457;51.976;9.834;2023-10-09T16:17:08;20.60;99.90
75824;DHT22;64457;51.976;9.834;2023-10-09T16:19:38;20.70;99.90